createdAt,value
2022-09-14T00:02:15.005Z,7.88
2022-09-14T00:04:37.487Z,9.40
2022-09-14T00:06:59.786Z,8.85
2022-09-14T00:09:23.322Z,5.53
2022-09-14T00:11:45.997Z,6.43
2022-09-14T00:14:08.410Z,7.82
2022-09-14T00:16:32.106Z,7.75
2022-09-14T00:18:55.126Z,6.57
2022-09-14T00:21:17.362Z,5.80
2022-09-14T00:23:42.218Z,5.50
2022-09-14T00:26:10.472Z,10.65
2022-09-14T00:28:37.161Z,9.45
2022-09-14T00:30:59.531Z,23.42
2022-09-14T00:33:21.874Z,17.65
2022-09-14T00:35:45.205Z,13.02
2022-09-14T00:38:11.874Z,11.30
2022-09-14T00:40:34.141Z,11.50
2022-09-14T00:42:56.349Z,12.50
2022-09-14T00:45:20.520Z,10.35
2022-09-14T00:47:43.428Z,12.48
2022-09-14T00:50:07.649Z,10.18
2022-09-14T00:52:32.885Z,13.95
2022-09-14T00:54:56.994Z,8.90
2022-09-14T00:57:20.772Z,10.82
2022-09-14T00:59:43.744Z,7.88
2022-09-14T01:02:09.077Z,7.75
2022-09-14T01:04:31.720Z,7.90
2022-09-14T01:07:05.183Z,10.27
2022-09-14T01:09:33.665Z,7.50
2022-09-14T01:11:59.885Z,10.63
2022-09-14T01:14:34.625Z,7.47
2022-09-14T01:17:03.772Z,8.35
2022-09-14T01:19:31.236Z,5.97
2022-09-14T01:21:55.894Z,8.70
2022-09-14T01:24:28.256Z,8.82
2022-09-14T01:26:56.457Z,7.90
2022-09-14T01:29:21.650Z,7.85
2022-09-14T01:31:56.226Z,6.95
2022-09-14T01:34:37.450Z,6.95
2022-09-14T01:37:02.090Z,9.27
2022-09-14T01:39:27.925Z,8.95
2022-09-14T01:41:51.731Z,9.32
2022-09-14T01:44:29.169Z,7.60
2022-09-14T01:46:54.040Z,10.18
2022-09-14T01:49:25.631Z,10.45
2022-09-14T01:51:49.982Z,8.80
2022-09-14T01:54:47.770Z,10.80
2022-09-14T01:57:09.998Z,9.38
2022-09-14T01:59:34.170Z,9.05
2022-09-14T02:02:05.357Z,8.98
2022-09-14T02:04:32.106Z,11.40
2022-09-14T02:06:56.440Z,11.88
2022-09-14T02:09:21.337Z,7.90
2022-09-14T02:11:43.626Z,13.30
2022-09-14T02:14:05.909Z,8.85
2022-09-14T02:16:28.362Z,11.20
2022-09-14T02:18:50.920Z,11.77
2022-09-14T02:21:16.844Z,11.48
2022-09-14T02:23:39.132Z,8.65
2022-09-14T02:26:01.835Z,15.35
2022-09-14T02:28:24.042Z,9.73
2022-09-14T02:30:53.317Z,12.35
2022-09-14T02:33:20.698Z,9.07
2022-09-14T02:35:47.844Z,7.53
2022-09-14T02:38:10.023Z,10.82
2022-09-14T02:40:32.568Z,14.18
2022-09-14T02:43:07.251Z,10.75
2022-09-14T02:45:41.956Z,11.00
2022-09-14T02:48:22.177Z,11.48
2022-09-14T02:51:04.737Z,9.15
2022-09-14T02:53:45.575Z,9.70
2022-09-14T02:56:09.217Z,14.35
2022-09-14T02:58:49.781Z,12.02
2022-09-14T03:01:17.138Z,11.15
2022-09-14T03:03:39.863Z,13.00
2022-09-14T03:06:02.304Z,11.13
2022-09-14T03:08:25.469Z,10.77
2022-09-14T03:10:47.687Z,9.68
2022-09-14T03:13:10.611Z,12.65
2022-09-14T03:15:32.931Z,10.48
2022-09-14T03:17:55.509Z,11.23
2022-09-14T03:20:19.480Z,11.88
2022-09-14T03:22:41.700Z,13.13
2022-09-14T03:25:04.135Z,10.05
2022-09-14T03:27:26.425Z,12.07
2022-09-14T03:29:48.721Z,12.35
2022-09-14T03:32:12.415Z,13.75
2022-09-14T03:34:34.658Z,14.65
2022-09-14T03:36:56.906Z,16.23
2022-09-14T03:39:19.204Z,11.77
2022-09-14T03:41:42.492Z,13.13
2022-09-14T03:44:04.737Z,16.23
2022-09-14T03:46:27.172Z,15.20
2022-09-14T03:48:49.837Z,13.63
2022-09-14T03:51:13.008Z,18.63
2022-09-14T03:53:35.707Z,19.20
2022-09-14T03:55:58.517Z,18.70
2022-09-14T03:58:20.933Z,14.57
2022-09-14T04:00:43.142Z,16.23
2022-09-14T04:03:05.357Z,15.77
2022-09-14T04:05:27.616Z,16.65
2022-09-14T04:07:49.865Z,16.17
2022-09-14T04:10:12.085Z,18.15
2022-09-14T04:12:35.570Z,14.57
2022-09-14T04:14:57.885Z,17.45
2022-09-14T04:17:20.157Z,19.38
2022-09-14T04:19:42.381Z,16.63
2022-09-14T04:22:05.501Z,13.82
2022-09-14T04:24:30.422Z,23.83
2022-09-14T04:26:53.142Z,22.85
2022-09-14T04:29:15.452Z,23.05
2022-09-14T04:31:37.988Z,20.55
2022-09-14T04:34:00.274Z,15.73
2022-09-14T04:36:23.586Z,19.48
2022-09-14T04:38:46.126Z,14.40
2022-09-14T04:41:09.612Z,29.85
2022-09-14T04:43:31.834Z,20.00
2022-09-14T04:45:54.635Z,20.30
2022-09-14T04:48:16.888Z,24.55
2022-09-14T04:50:39.331Z,19.20
2022-09-14T04:53:01.548Z,18.70
2022-09-14T04:55:24.290Z,17.50
2022-09-14T04:57:46.642Z,18.83
2022-09-14T05:00:09.322Z,16.58
2022-09-14T05:02:31.930Z,21.17
2022-09-14T05:04:54.134Z,23.13
2022-09-14T05:07:16.380Z,21.45
2022-09-14T05:09:38.622Z,30.27
2022-09-14T05:12:00.857Z,35.03
2022-09-14T05:14:23.138Z,27.77
2022-09-14T05:16:45.520Z,35.42
2022-09-14T05:19:08.587Z,30.55
2022-09-14T05:21:31.995Z,32.28
2022-09-14T05:23:58.706Z,29.30
2022-09-14T05:26:21.021Z,23.85
2022-09-14T05:28:43.316Z,29.80
2022-09-14T05:31:06.489Z,29.02
2022-09-14T05:33:28.766Z,24.50
2022-09-14T05:35:51.681Z,24.92
2022-09-14T05:38:14.290Z,23.67
2022-09-14T05:40:36.567Z,22.90
2022-09-14T05:42:58.783Z,17.02
2022-09-14T05:45:21.031Z,15.85
2022-09-14T05:47:43.318Z,19.80
2022-09-14T05:50:05.812Z,18.27
2022-09-14T05:52:29.915Z,20.08
2022-09-14T05:54:52.274Z,17.33
2022-09-14T05:57:14.481Z,21.70
2022-09-14T05:59:36.865Z,44.38
2022-09-14T06:01:59.563Z,21.48
2022-09-14T06:04:21.837Z,18.15
2022-09-14T06:06:55.935Z,16.40
2022-09-14T06:09:29.973Z,14.65
2022-09-14T06:12:00.436Z,19.05
2022-09-14T06:14:22.641Z,17.65
2022-09-14T06:16:44.860Z,15.88
2022-09-14T06:19:07.285Z,21.65
2022-09-14T06:21:30.727Z,20.58
2022-09-14T06:23:53.048Z,19.77
2022-09-14T06:26:15.690Z,17.92
2022-09-14T06:28:38.348Z,19.00
2022-09-14T06:31:01.225Z,18.83
2022-09-14T06:33:23.988Z,22.50
2022-09-14T06:36:15.859Z,21.27
2022-09-14T06:38:38.117Z,19.02
2022-09-14T06:41:01.728Z,17.73
2022-09-14T06:43:25.073Z,19.90
2022-09-14T06:45:55.584Z,24.42
2022-09-14T06:48:18.392Z,17.75
2022-09-14T06:50:40.682Z,20.90
2022-09-14T06:53:02.938Z,20.08
2022-09-14T06:55:25.225Z,30.20
2022-09-14T06:57:48.961Z,26.15
2022-09-14T07:00:11.452Z,24.27
2022-09-14T07:02:33.703Z,23.75
2022-09-14T07:04:56.127Z,27.48
2022-09-14T07:07:18.344Z,24.80
2022-09-14T07:09:40.569Z,26.30
2022-09-14T07:12:03.197Z,29.00
2022-09-14T07:14:28.266Z,22.35
2022-09-14T07:16:52.714Z,26.08
2022-09-14T07:19:16.189Z,17.52
2022-09-14T07:21:38.385Z,15.25
2022-09-14T07:24:01.111Z,17.50
2022-09-14T07:26:26.399Z,21.50
2022-09-14T07:28:50.171Z,22.95
2022-09-14T07:31:21.689Z,25.70
2022-09-14T07:33:44.145Z,24.15
2022-09-14T07:36:07.491Z,25.08
2022-09-14T07:38:48.531Z,25.60
2022-09-14T07:41:12.157Z,26.60
2022-09-14T07:43:34.958Z,21.80
2022-09-14T07:45:57.777Z,21.52
2022-09-14T07:48:20.924Z,22.25
2022-09-14T07:50:43.137Z,27.15
2022-09-14T07:53:05.476Z,28.05
2022-09-14T07:55:27.802Z,28.75
2022-09-14T07:57:56.664Z,29.42
2022-09-14T08:00:19.334Z,35.20
2022-09-14T08:02:41.604Z,30.83
2022-09-14T08:05:04.376Z,29.75
2022-09-14T08:07:27.316Z,26.02
2022-09-14T08:09:49.849Z,27.90
2022-09-14T08:12:12.170Z,24.98
2022-09-14T08:14:34.404Z,26.48
2022-09-14T08:16:57.285Z,22.38
2022-09-14T08:19:20.941Z,20.50
2022-09-14T08:21:46.834Z,17.65
2022-09-14T08:24:12.332Z,18.58
2022-09-14T08:26:36.601Z,24.02
2022-09-14T08:29:00.466Z,18.40
2022-09-14T08:31:24.970Z,19.15
2022-09-14T08:33:49.241Z,19.15
2022-09-14T08:36:12.692Z,18.75
2022-09-14T08:38:34.939Z,18.45
2022-09-14T08:40:57.722Z,19.48
2022-09-14T08:43:22.196Z,16.38
2022-09-14T08:45:44.746Z,13.57
2022-09-14T08:48:09.085Z,13.98
2022-09-14T08:50:34.690Z,15.27
2022-09-14T08:53:00.238Z,17.23
2022-09-14T08:55:41.429Z,17.05
2022-09-14T08:58:07.847Z,15.48
2022-09-14T09:00:38.165Z,16.58
2022-09-14T09:03:00.394Z,17.98
2022-09-14T09:05:41.299Z,16.80
2022-09-14T09:08:04.221Z,14.82
2022-09-14T09:10:27.597Z,15.02
2022-09-14T09:12:52.725Z,14.73
2022-09-14T09:15:15.037Z,15.10
2022-09-14T09:17:46.998Z,12.82
2022-09-14T09:20:21.237Z,18.08
2022-09-14T09:23:09.966Z,13.68
2022-09-14T09:25:37.720Z,12.65
2022-09-14T09:28:02.655Z,11.57
2022-09-14T09:30:29.680Z,11.85
2022-09-14T09:32:52.185Z,10.40
2022-09-14T09:35:38.607Z,11.95
2022-09-14T09:38:15.785Z,10.70
2022-09-14T09:40:44.812Z,11.73
2022-09-14T09:43:11.678Z,12.68
2022-09-14T09:45:51.097Z,13.43
2022-09-14T09:48:14.367Z,10.80
2022-09-14T09:50:36.597Z,9.35
2022-09-14T09:53:04.525Z,10.55
2022-09-14T09:55:38.363Z,10.82
2022-09-14T09:58:20.859Z,9.73
2022-09-14T10:00:55.286Z,9.45
2022-09-14T10:03:27.329Z,11.07
2022-09-14T10:06:00.504Z,11.82
2022-09-14T10:08:22.892Z,10.57
2022-09-14T10:10:45.225Z,11.75
2022-09-14T10:13:16.635Z,8.25
2022-09-14T10:15:39.225Z,10.30
2022-09-14T10:18:09.031Z,7.55
2022-09-14T10:20:31.603Z,6.93
2022-09-14T10:22:54.997Z,9.57
2022-09-14T10:25:17.869Z,9.65
2022-09-14T10:27:41.811Z,12.68
2022-09-14T10:30:05.256Z,9.52
2022-09-14T10:32:27.949Z,10.00
2022-09-14T10:34:53.462Z,12.27
2022-09-14T10:37:25.565Z,10.63
2022-09-14T10:40:08.034Z,11.90
2022-09-14T10:42:39.811Z,9.80
2022-09-14T10:45:08.294Z,7.35
2022-09-14T10:47:49.218Z,11.48
2022-09-14T10:50:11.727Z,12.20
2022-09-14T10:52:54.241Z,11.90
2022-09-14T10:55:25.425Z,9.07
2022-09-14T10:58:01.069Z,8.45
2022-09-14T11:00:23.658Z,9.05
2022-09-14T11:03:00.464Z,12.18
2022-09-14T11:05:25.632Z,9.88
2022-09-14T11:07:53.857Z,7.32
2022-09-14T11:10:28.456Z,11.23
2022-09-14T11:12:56.000Z,8.05
2022-09-14T11:15:19.032Z,10.20
2022-09-14T11:17:47.540Z,10.02
2022-09-14T11:20:25.670Z,10.07
2022-09-14T11:23:13.894Z,10.52
2022-09-14T11:25:48.503Z,6.30
2022-09-14T11:28:13.528Z,7.22
2022-09-14T11:30:41.391Z,6.47
2022-09-14T11:33:07.723Z,6.07
2022-09-14T11:35:56.658Z,12.30
2022-09-14T11:38:20.820Z,9.05
2022-09-14T11:41:06.505Z,5.10
2022-09-14T11:43:31.319Z,8.15
2022-09-14T11:45:59.784Z,5.95
2022-09-14T11:48:42.498Z,8.35
2022-09-14T11:51:17.515Z,7.00
2022-09-14T11:53:41.833Z,6.55
2022-09-14T11:56:05.142Z,5.15
2022-09-14T11:58:31.626Z,7.93
2022-09-14T12:01:00.682Z,8.82
2022-09-14T12:03:24.303Z,8.35
2022-09-14T12:05:47.262Z,5.50
2022-09-14T12:08:29.764Z,12.35
2022-09-14T12:11:02.717Z,7.43
2022-09-14T12:13:25.033Z,5.65
2022-09-14T12:15:47.507Z,5.80
2022-09-14T12:18:10.011Z,7.35
2022-09-14T12:20:32.276Z,7.03
2022-09-14T12:23:15.565Z,7.85
2022-09-14T12:25:38.911Z,6.03
2022-09-14T12:28:01.232Z,5.40
2022-09-14T12:30:41.710Z,7.07
2022-09-14T12:33:04.188Z,8.25
2022-09-14T12:35:35.652Z,6.03
2022-09-14T12:37:59.394Z,5.65
2022-09-14T12:40:21.720Z,7.05
2022-09-14T12:42:43.993Z,6.70
2022-09-14T12:45:25.284Z,9.55
2022-09-14T12:47:51.511Z,9.20
2022-09-14T12:50:18.664Z,9.23
2022-09-14T12:52:50.304Z,11.93
2022-09-14T12:55:31.132Z,6.22
2022-09-14T12:58:13.631Z,9.65
2022-09-14T13:00:47.839Z,7.28
2022-09-14T13:03:19.736Z,5.00
2022-09-14T13:05:44.441Z,7.60
2022-09-14T13:08:11.452Z,4.95
2022-09-14T13:10:35.297Z,7.13
2022-09-14T13:12:57.793Z,4.45
2022-09-14T13:15:20.068Z,4.25
2022-09-14T13:18:01.021Z,4.70
2022-09-14T13:20:23.493Z,3.25
2022-09-14T13:22:45.709Z,4.72
2022-09-14T13:25:08.844Z,3.55
2022-09-14T13:27:34.174Z,5.95
2022-09-14T13:30:29.083Z,4.72
2022-09-14T13:32:52.269Z,4.65
2022-09-14T13:35:19.248Z,4.35
2022-09-14T13:37:44.160Z,4.07
2022-09-14T13:40:10.079Z,3.22
2022-09-14T13:42:32.416Z,4.25
2022-09-14T13:44:54.897Z,3.90
2022-09-14T13:47:19.473Z,7.85
2022-09-14T13:49:42.498Z,4.45
2022-09-14T13:52:33.934Z,6.20
2022-09-14T13:55:08.757Z,4.40
2022-09-14T13:57:31.011Z,4.40
2022-09-14T14:00:10.073Z,3.75
2022-09-14T14:02:33.535Z,3.10
2022-09-14T14:04:55.856Z,2.80
2022-09-14T14:07:18.118Z,6.90
2022-09-14T14:09:45.666Z,6.28
2022-09-14T14:12:07.918Z,7.82
2022-09-14T14:14:31.732Z,3.88
2022-09-14T14:17:12.890Z,3.25
2022-09-14T14:19:35.137Z,5.07
2022-09-14T14:22:15.686Z,3.13
2022-09-14T14:24:49.890Z,3.65
2022-09-14T14:27:26.477Z,2.50
2022-09-14T14:29:49.064Z,6.15
2022-09-14T14:32:12.156Z,7.07
2022-09-14T14:34:34.429Z,3.78
2022-09-14T14:36:57.607Z,3.28
2022-09-14T14:39:20.829Z,2.95
2022-09-14T14:41:43.157Z,3.65
2022-09-14T14:44:05.433Z,6.68
2022-09-14T14:46:27.891Z,1.52
2022-09-14T14:48:50.281Z,5.90
2022-09-14T14:51:15.813Z,5.50
2022-09-14T14:53:38.098Z,2.13
2022-09-14T14:56:00.568Z,5.45
2022-09-14T14:58:23.687Z,4.38
2022-09-14T15:00:47.159Z,5.15
2022-09-14T15:03:09.781Z,3.63
2022-09-14T15:05:34.326Z,5.13
2022-09-14T15:07:56.605Z,4.63
2022-09-14T15:10:19.366Z,3.38
2022-09-14T15:12:41.648Z,5.20
2022-09-14T15:15:04.581Z,5.35
2022-09-14T15:17:26.872Z,3.63
2022-09-14T15:19:49.282Z,4.35
2022-09-14T15:22:14.435Z,3.78
2022-09-14T15:24:37.705Z,4.55
2022-09-14T15:26:59.943Z,3.80
2022-09-14T15:29:22.225Z,2.83
2022-09-14T15:31:44.960Z,3.83
2022-09-14T15:34:07.252Z,5.78
2022-09-14T15:36:40.166Z,3.08
2022-09-14T15:39:02.558Z,1.58
2022-09-14T15:41:24.772Z,1.33
2022-09-14T15:43:50.115Z,2.50
2022-09-14T15:46:12.687Z,1.90
2022-09-14T15:48:35.269Z,1.52
2022-09-14T15:51:00.597Z,1.48
2022-09-14T15:53:22.857Z,0.77
2022-09-14T15:55:45.756Z,1.08
2022-09-14T15:58:08.780Z,2.75
2022-09-14T16:00:31.042Z,0.68
2022-09-14T16:02:53.392Z,1.95
2022-09-14T16:05:25.162Z,1.08
2022-09-14T16:07:47.801Z,2.17
2022-09-14T16:10:10.313Z,0.85
2022-09-14T16:12:32.581Z,2.08
2022-09-14T16:14:54.920Z,1.75
2022-09-14T16:17:17.138Z,2.53
2022-09-14T16:19:39.438Z,2.97
2022-09-14T16:22:01.788Z,1.88
2022-09-14T16:24:25.230Z,3.90
2022-09-14T16:26:47.708Z,2.15
2022-09-14T16:29:11.851Z,0.90
2022-09-14T16:31:35.027Z,1.63
2022-09-14T16:33:58.967Z,2.00
2022-09-14T16:36:22.714Z,1.35
2022-09-14T16:38:45.129Z,2.95
2022-09-14T16:41:08.023Z,1.38
2022-09-14T16:43:31.170Z,2.28
2022-09-14T16:46:01.152Z,2.65
2022-09-14T16:48:24.441Z,4.05
2022-09-14T16:50:46.696Z,2.67
2022-09-14T16:53:08.953Z,3.03
2022-09-14T16:55:32.508Z,2.28
2022-09-14T16:57:54.774Z,3.42
2022-09-14T17:00:17.051Z,3.95
2022-09-14T17:02:39.465Z,2.28
2022-09-14T17:05:01.786Z,1.92
2022-09-14T17:07:24.426Z,2.60
2022-09-14T17:09:47.055Z,3.75
2022-09-14T17:12:09.325Z,4.40
2022-09-14T17:14:33.489Z,6.50
2022-09-14T17:16:55.899Z,3.15
2022-09-14T17:19:18.491Z,6.85
2022-09-14T17:21:41.637Z,9.10
2022-09-14T17:24:04.822Z,12.13
2022-09-14T17:26:27.146Z,9.48
2022-09-14T17:28:50.369Z,6.78
2022-09-14T17:31:13.812Z,6.05
2022-09-14T17:33:36.154Z,5.35
2022-09-14T17:35:59.541Z,5.93
2022-09-14T17:38:22.744Z,6.20
2022-09-14T17:40:45.253Z,9.13
2022-09-14T17:43:07.490Z,3.13
2022-09-14T17:45:29.712Z,7.22
2022-09-14T17:47:51.920Z,2.67
2022-09-14T17:50:14.201Z,3.50
2022-09-14T17:52:36.643Z,3.58
2022-09-14T17:54:58.927Z,2.22
2022-09-14T17:57:25.412Z,2.38
2022-09-14T17:59:47.696Z,3.92
2022-09-14T18:02:10.351Z,2.60
2022-09-14T18:04:32.530Z,5.65
2022-09-14T18:06:55.101Z,3.25
2022-09-14T18:09:19.724Z,7.22
2022-09-14T18:11:42.417Z,8.30
2022-09-14T18:14:05.842Z,5.90
2022-09-14T18:16:28.286Z,6.03
2022-09-14T18:18:51.008Z,3.63
2022-09-14T18:21:14.858Z,6.82
2022-09-14T18:23:38.782Z,9.05
2022-09-14T18:26:05.484Z,5.28
2022-09-14T18:28:27.708Z,3.47
2022-09-14T18:30:50.378Z,3.45
2022-09-14T18:33:13.495Z,2.50
2022-09-14T18:35:37.851Z,3.13
2022-09-14T18:38:00.146Z,3.38
2022-09-14T18:40:24.249Z,4.68
2022-09-14T18:42:47.895Z,4.22
2022-09-14T18:45:10.357Z,4.32
2022-09-14T18:47:32.697Z,2.80
2022-09-14T18:49:55.025Z,3.20
2022-09-14T18:52:20.626Z,5.35
2022-09-14T18:54:42.895Z,4.53
2022-09-14T18:57:05.173Z,3.53
2022-09-14T18:59:27.928Z,4.45
2022-09-14T19:01:50.207Z,2.95
2022-09-14T19:04:12.890Z,4.22
2022-09-14T19:06:36.663Z,5.63
2022-09-14T19:08:58.911Z,2.97
2022-09-14T19:11:22.569Z,6.57
2022-09-14T19:13:45.488Z,5.50
2022-09-14T19:16:08.595Z,4.72
2022-09-14T19:18:30.929Z,5.97
2022-09-14T19:21:06.377Z,5.75
2022-09-14T19:23:29.238Z,4.57
2022-09-14T19:25:51.482Z,6.22
2022-09-14T19:28:13.749Z,4.70
2022-09-14T19:30:39.650Z,7.20
2022-09-14T19:33:01.916Z,3.72
2022-09-14T19:35:24.278Z,8.75
2022-09-14T19:37:46.582Z,4.60
2022-09-14T19:40:10.397Z,3.17
2022-09-14T19:42:32.807Z,5.13
2022-09-14T19:44:55.087Z,3.42
2022-09-14T19:47:17.395Z,3.08
2022-09-14T19:49:39.612Z,3.05
2022-09-14T19:52:01.937Z,5.50
2022-09-14T19:54:25.182Z,3.40
2022-09-14T19:56:47.516Z,5.72
2022-09-14T19:59:18.779Z,4.55
2022-09-14T20:01:42.121Z,3.90
2022-09-14T20:04:05.021Z,4.20
2022-09-14T20:06:31.954Z,5.25
2022-09-14T20:08:57.801Z,3.95
2022-09-14T20:11:20.861Z,3.30
2022-09-14T20:13:43.132Z,5.35
2022-09-14T20:16:38.140Z,4.65
2022-09-14T20:19:02.918Z,4.18
2022-09-14T20:21:26.013Z,5.88
2022-09-14T20:24:14.592Z,5.53
2022-09-14T20:26:35.317Z,4.63
2022-09-14T20:28:59.976Z,7.53
2022-09-14T20:31:22.931Z,5.20
2022-09-14T20:33:45.294Z,4.78
2022-09-14T20:36:08.873Z,5.28
2022-09-14T20:38:31.289Z,4.63
2022-09-14T20:41:00.377Z,5.38
2022-09-14T20:43:22.697Z,4.10
2022-09-14T20:45:44.893Z,8.52
2022-09-14T20:48:07.284Z,6.78
2022-09-14T20:50:29.573Z,8.25
2022-09-14T20:52:51.829Z,5.45
2022-09-14T20:55:14.251Z,7.40
2022-09-14T20:57:36.664Z,11.45
2022-09-14T20:59:58.987Z,9.25
2022-09-14T21:02:21.289Z,6.10
2022-09-14T21:04:43.751Z,5.47
2022-09-14T21:07:06.068Z,10.80
2022-09-14T21:09:29.138Z,5.53
2022-09-14T21:11:52.415Z,5.80
2022-09-14T21:14:15.606Z,6.60
2022-09-14T21:16:42.670Z,6.90
2022-09-14T21:19:08.861Z,4.90
2022-09-14T21:21:31.566Z,6.03
2022-09-14T21:23:55.841Z,5.72
2022-09-14T21:26:19.375Z,5.00
2022-09-14T21:28:41.942Z,4.50
2022-09-14T21:31:08.876Z,7.30
2022-09-14T21:33:32.351Z,7.80
2022-09-14T21:35:54.682Z,9.45
2022-09-14T21:38:16.985Z,9.13
2022-09-14T21:40:44.602Z,9.18
2022-09-14T21:43:06.851Z,11.30
2022-09-14T21:45:29.089Z,10.05
2022-09-14T21:47:51.330Z,13.93
2022-09-14T21:50:13.672Z,13.70
2022-09-14T21:52:40.757Z,8.85
2022-09-14T21:55:02.973Z,8.00
2022-09-14T21:57:25.267Z,7.13
2022-09-14T21:59:47.458Z,7.28
2022-09-14T22:02:09.791Z,7.47
2022-09-14T22:04:32.070Z,5.45
2022-09-14T22:06:55.010Z,9.20
2022-09-14T22:09:18.296Z,6.38
2022-09-14T22:11:40.534Z,8.25
2022-09-14T22:14:02.713Z,4.35
2022-09-14T22:16:25.463Z,5.28
2022-09-14T22:18:52.629Z,3.78
2022-09-14T22:21:14.845Z,4.50
2022-09-14T22:23:37.090Z,3.95
2022-09-14T22:25:59.378Z,4.45
2022-09-14T22:28:21.728Z,5.93
2022-09-14T22:30:45.198Z,2.95
2022-09-14T22:33:07.467Z,3.22
2022-09-14T22:35:29.696Z,2.53
2022-09-14T22:37:51.928Z,2.28
2022-09-14T22:40:14.212Z,2.75
2022-09-14T22:42:36.994Z,3.67
2022-09-14T22:44:59.281Z,5.10
2022-09-14T22:47:21.481Z,3.85
2022-09-14T22:49:43.722Z,4.13
2022-09-14T22:52:06.157Z,2.42
2022-09-14T22:54:28.485Z,3.50
2022-09-14T22:56:51.142Z,4.38
2022-09-14T22:59:13.417Z,5.25
2022-09-14T23:01:38.875Z,3.28
2022-09-14T23:04:02.569Z,4.78
2022-09-14T23:06:38.553Z,3.40
2022-09-14T23:09:00.825Z,4.47
2022-09-14T23:11:23.097Z,5.55
2022-09-14T23:13:45.303Z,2.80
2022-09-14T23:16:18.277Z,2.95
2022-09-14T23:18:40.970Z,4.57
2022-09-14T23:21:03.998Z,7.45
2022-09-14T23:23:26.261Z,3.85
2022-09-14T23:25:48.966Z,6.00
2022-09-14T23:28:12.557Z,5.68
2022-09-14T23:30:35.177Z,5.70
2022-09-14T23:32:58.250Z,6.80
2022-09-14T23:35:20.737Z,6.32
2022-09-14T23:37:42.974Z,8.98
2022-09-14T23:40:05.476Z,6.55
2022-09-14T23:42:27.804Z,8.75
2022-09-14T23:44:50.143Z,8.88
2022-09-14T23:47:12.355Z,9.68
2022-09-14T23:49:35.621Z,9.05
2022-09-14T23:51:57.825Z,9.18
2022-09-14T23:54:20.420Z,10.98
2022-09-14T23:56:43.859Z,8.20
2022-09-14T23:59:06.812Z,11.77
